sensor_id;sensor_type;location;lat;lon;timestamp;P1;durP1;ratioP1;P2;durP2;ratioP2
72645;SDS011;60687;53.876;10.674;2023-07-13T00:06:41;8.25;;;1.40;;
72645;SDS011;60687;53.876;10.674;2023-07-13T00:16:45;5.37;;;1.53;;
72645;SDS011;60687;53.876;10.674;2023-07-13T00:26:49;6.13;;;2.07;;
72645;SDS011;60687;53.876;10.674;2023-07-13T00:36:51;6.75;;;1.90;;
72645;SDS011;60687;53.876;10.674;2023-07-13T00:46:55;6.23;;;1.47;;
72645;SDS011;60687;53.876;10.674;2023-07-13T00:56:59;5.40;;;1.43;;
72645;SDS011;60687;53.876;10.674;2023-07-13T01:07:06;4.50;;;1.43;;
72645;SDS011;60687;53.876;10.674;2023-07-13T01:17:09;5.65;;;1.42;;
72645;SDS011;60687;53.876;10.674;2023-07-13T01:27:15;5.47;;;1.60;;
72645;SDS011;60687;53.876;10.674;2023-07-13T01:37:21;5.20;;;1.50;;
72645;SDS011;60687;53.876;10.674;2023-07-13T01:47:27;6.97;;;1.75;;
72645;SDS011;60687;53.876;10.674;2023-07-13T01:57:31;5.93;;;1.57;;
72645;SDS011;60687;53.876;10.674;2023-07-13T02:07:35;6.13;;;1.80;;
72645;SDS011;60687;53.876;10.674;2023-07-13T02:17:38;4.75;;;1.45;;
72645;SDS011;60687;53.876;10.674;2023-07-13T02:27:42;5.13;;;1.55;;
72645;SDS011;60687;53.876;10.674;2023-07-13T02:37:45;7.97;;;1.80;;
72645;SDS011;60687;53.876;10.674;2023-07-13T02:47:49;6.60;;;1.70;;
72645;SDS011;60687;53.876;10.674;2023-07-13T02:57:51;5.97;;;1.80;;
72645;SDS011;60687;53.876;10.674;2023-07-13T03:07:56;6.13;;;1.80;;
72645;SDS011;60687;53.876;10.674;2023-07-13T03:17:59;5.80;;;1.80;;
72645;SDS011;60687;53.876;10.674;2023-07-13T03:28:03;5.30;;;1.60;;
72645;SDS011;60687;53.876;10.674;2023-07-13T03:38:07;7.53;;;1.70;;
72645;SDS011;60687;53.876;10.674;2023-07-13T03:48:11;5.87;;;1.77;;
72645;SDS011;60687;53.876;10.674;2023-07-13T03:58:28;6.07;;;2.00;;
72645;SDS011;60687;53.876;10.674;2023-07-13T04:08:40;6.43;;;2.65;;
72645;SDS011;60687;53.876;10.674;2023-07-13T04:18:43;7.27;;;2.10;;
72645;SDS011;60687;53.876;10.674;2023-07-13T04:28:47;5.60;;;1.60;;
72645;SDS011;60687;53.876;10.674;2023-07-13T04:38:49;5.45;;;1.90;;
72645;SDS011;60687;53.876;10.674;2023-07-13T04:48:53;5.20;;;1.77;;
72645;SDS011;60687;53.876;10.674;2023-07-13T04:58:55;6.10;;;2.10;;
72645;SDS011;60687;53.876;10.674;2023-07-13T05:09:00;9.77;;;2.30;;
72645;SDS011;60687;53.876;10.674;2023-07-13T05:19:04;7.70;;;1.97;;
72645;SDS011;60687;53.876;10.674;2023-07-13T05:29:08;8.27;;;2.37;;
72645;SDS011;60687;53.876;10.674;2023-07-13T05:39:11;9.98;;;2.20;;
72645;SDS011;60687;53.876;10.674;2023-07-13T05:49:15;5.75;;;1.85;;
72645;SDS011;60687;53.876;10.674;2023-07-13T05:59:17;7.57;;;1.93;;
72645;SDS011;60687;53.876;10.674;2023-07-13T06:09:21;10.60;;;2.30;;
72645;SDS011;60687;53.876;10.674;2023-07-13T06:19:24;8.60;;;2.30;;
72645;SDS011;60687;53.876;10.674;2023-07-13T06:29:27;7.97;;;2.30;;
72645;SDS011;60687;53.876;10.674;2023-07-13T06:39:30;8.03;;;2.33;;
72645;SDS011;60687;53.876;10.674;2023-07-13T06:49:33;8.00;;;2.13;;
72645;SDS011;60687;53.876;10.674;2023-07-13T06:59:36;9.30;;;2.07;;
72645;SDS011;60687;53.876;10.674;2023-07-13T07:09:39;8.10;;;2.40;;
72645;SDS011;60687;53.876;10.674;2023-07-13T07:19:42;11.93;;;2.70;;
72645;SDS011;60687;53.876;10.674;2023-07-13T07:29:46;8.03;;;2.43;;
72645;SDS011;60687;53.876;10.674;2023-07-13T07:39:48;7.93;;;2.33;;
72645;SDS011;60687;53.876;10.674;2023-07-13T07:49:52;9.07;;;2.13;;
72645;SDS011;60687;53.876;10.674;2023-07-13T07:59:54;9.50;;;1.70;;
72645;SDS011;60687;53.876;10.674;2023-07-13T08:09:58;7.57;;;1.60;;
72645;SDS011;60687;53.876;10.674;2023-07-13T08:20:00;6.13;;;1.43;;
72645;SDS011;60687;53.876;10.674;2023-07-13T08:30:06;6.78;;;1.42;;
72645;SDS011;60687;53.876;10.674;2023-07-13T08:40:10;5.20;;;0.90;;
72645;SDS011;60687;53.876;10.674;2023-07-13T08:50:17;5.57;;;1.23;;
72645;SDS011;60687;53.876;10.674;2023-07-13T09:00:30;5.82;;;1.10;;
72645;SDS011;60687;53.876;10.674;2023-07-13T09:10:44;6.63;;;1.33;;
72645;SDS011;60687;53.876;10.674;2023-07-13T09:20:48;6.17;;;1.33;;
72645;SDS011;60687;53.876;10.674;2023-07-13T09:30:56;6.37;;;1.60;;
72645;SDS011;60687;53.876;10.674;2023-07-13T09:41:04;5.75;;;1.77;;
72645;SDS011;60687;53.876;10.674;2023-07-13T09:51:18;6.07;;;1.97;;
72645;SDS011;60687;53.876;10.674;2023-07-13T10:01:30;6.40;;;1.40;;
72645;SDS011;60687;53.876;10.674;2023-07-13T10:11:36;4.60;;;1.48;;
72645;SDS011;60687;53.876;10.674;2023-07-13T10:21:44;8.10;;;1.40;;
72645;SDS011;60687;53.876;10.674;2023-07-13T10:31:54;4.93;;;1.40;;
72645;SDS011;60687;53.876;10.674;2023-07-13T10:42:01;5.13;;;1.42;;
72645;SDS011;60687;53.876;10.674;2023-07-13T10:52:20;5.37;;;1.73;;
72645;SDS011;60687;53.876;10.674;2023-07-13T11:02:55;6.77;;;1.43;;
72645;SDS011;60687;53.876;10.674;2023-07-13T11:13:02;6.97;;;1.40;;
72645;SDS011;60687;53.876;10.674;2023-07-13T11:23:09;5.10;;;1.27;;
72645;SDS011;60687;53.876;10.674;2023-07-13T11:33:24;5.53;;;1.40;;
72645;SDS011;60687;53.876;10.674;2023-07-13T11:43:29;6.77;;;1.37;;
72645;SDS011;60687;53.876;10.674;2023-07-13T11:53:37;6.78;;;1.88;;
72645;SDS011;60687;53.876;10.674;2023-07-13T12:03:42;6.17;;;1.60;;
72645;SDS011;60687;53.876;10.674;2023-07-13T12:13:47;6.53;;;1.40;;
72645;SDS011;60687;53.876;10.674;2023-07-13T12:23:50;5.13;;;1.30;;
72645;SDS011;60687;53.876;10.674;2023-07-13T12:33:57;5.87;;;1.57;;
72645;SDS011;60687;53.876;10.674;2023-07-13T12:44:01;6.13;;;1.60;;
72645;SDS011;60687;53.876;10.674;2023-07-13T12:54:12;6.73;;;1.20;;
72645;SDS011;60687;53.876;10.674;2023-07-13T13:04:18;5.95;;;1.50;;
72645;SDS011;60687;53.876;10.674;2023-07-13T13:14:23;6.03;;;1.33;;
72645;SDS011;60687;53.876;10.674;2023-07-13T13:24:26;6.93;;;1.33;;
72645;SDS011;60687;53.876;10.674;2023-07-13T13:34:32;7.18;;;1.60;;
72645;SDS011;60687;53.876;10.674;2023-07-13T13:44:34;6.03;;;1.43;;
72645;SDS011;60687;53.876;10.674;2023-07-13T13:54:39;7.37;;;1.60;;
72645;SDS011;60687;53.876;10.674;2023-07-13T14:04:42;5.88;;;1.50;;
72645;SDS011;60687;53.876;10.674;2023-07-13T14:14:47;8.50;;;2.63;;
72645;SDS011;60687;53.876;10.674;2023-07-13T14:24:49;6.13;;;1.47;;
72645;SDS011;60687;53.876;10.674;2023-07-13T14:34:53;6.10;;;1.80;;
72645;SDS011;60687;53.876;10.674;2023-07-13T14:44:56;5.50;;;1.65;;
72645;SDS011;60687;53.876;10.674;2023-07-13T14:55:00;5.97;;;1.57;;
72645;SDS011;60687;53.876;10.674;2023-07-13T15:05:05;5.57;;;1.80;;
72645;SDS011;60687;53.876;10.674;2023-07-13T15:15:15;5.65;;;1.30;;
72645;SDS011;60687;53.876;10.674;2023-07-13T15:25:18;5.93;;;1.47;;
72645;SDS011;60687;53.876;10.674;2023-07-13T15:35:24;7.23;;;1.97;;
72645;SDS011;60687;53.876;10.674;2023-07-13T15:45:28;5.13;;;1.70;;
72645;SDS011;60687;53.876;10.674;2023-07-13T15:55:33;5.13;;;1.50;;
72645;SDS011;60687;53.876;10.674;2023-07-13T16:05:37;6.60;;;1.30;;
72645;SDS011;60687;53.876;10.674;2023-07-13T16:15:42;5.37;;;1.20;;
72645;SDS011;60687;53.876;10.674;2023-07-13T16:25:45;4.13;;;1.17;;
72645;SDS011;60687;53.876;10.674;2023-07-13T16:35:50;4.53;;;1.20;;
72645;SDS011;60687;53.876;10.674;2023-07-13T16:45:53;3.80;;;0.80;;
72645;SDS011;60687;53.876;10.674;2023-07-13T16:56:01;4.28;;;1.02;;
72645;SDS011;60687;53.876;10.674;2023-07-13T17:06:15;6.40;;;1.23;;
72645;SDS011;60687;53.876;10.674;2023-07-13T17:16:25;4.40;;;1.10;;
72645;SDS011;60687;53.876;10.674;2023-07-13T17:26:28;3.95;;;1.00;;
72645;SDS011;60687;53.876;10.674;2023-07-13T17:36:33;3.03;;;0.70;;
72645;SDS011;60687;53.876;10.674;2023-07-13T17:46:35;3.60;;;0.90;;
72645;SDS011;60687;53.876;10.674;2023-07-13T17:56:39;4.17;;;1.00;;
72645;SDS011;60687;53.876;10.674;2023-07-13T18:06:43;5.13;;;1.13;;
72645;SDS011;60687;53.876;10.674;2023-07-13T18:16:56;5.00;;;1.30;;
72645;SDS011;60687;53.876;10.674;2023-07-13T18:27:01;4.03;;;1.20;;
72645;SDS011;60687;53.876;10.674;2023-07-13T18:37:10;6.07;;;1.27;;
72645;SDS011;60687;53.876;10.674;2023-07-13T18:47:19;3.23;;;0.83;;
72645;SDS011;60687;53.876;10.674;2023-07-13T18:57:26;4.37;;;1.07;;
72645;SDS011;60687;53.876;10.674;2023-07-13T19:07:29;5.07;;;1.10;;
72645;SDS011;60687;53.876;10.674;2023-07-13T19:17:34;5.28;;;1.20;;
72645;SDS011;60687;53.876;10.674;2023-07-13T19:27:37;3.90;;;0.80;;
72645;SDS011;60687;53.876;10.674;2023-07-13T19:37:41;3.60;;;0.80;;
72645;SDS011;60687;53.876;10.674;2023-07-13T19:47:44;4.40;;;1.00;;
72645;SDS011;60687;53.876;10.674;2023-07-13T19:57:48;9.03;;;2.27;;
72645;SDS011;60687;53.876;10.674;2023-07-13T20:07:52;5.57;;;1.30;;
72645;SDS011;60687;53.876;10.674;2023-07-13T20:17:58;5.25;;;1.35;;
72645;SDS011;60687;53.876;10.674;2023-07-13T20:28:03;3.50;;;0.90;;
72645;SDS011;60687;53.876;10.674;2023-07-13T20:38:11;3.57;;;0.90;;
72645;SDS011;60687;53.876;10.674;2023-07-13T20:48:20;3.97;;;0.90;;
72645;SDS011;60687;53.876;10.674;2023-07-13T20:58:28;5.57;;;1.30;;
72645;SDS011;60687;53.876;10.674;2023-07-13T21:08:30;4.37;;;1.40;;
72645;SDS011;60687;53.876;10.674;2023-07-13T21:18:36;4.40;;;1.43;;
72645;SDS011;60687;53.876;10.674;2023-07-13T21:28:40;7.50;;;1.77;;
72645;SDS011;60687;53.876;10.674;2023-07-13T21:38:45;4.97;;;1.27;;
72645;SDS011;60687;53.876;10.674;2023-07-13T21:48:49;7.87;;;1.30;;
72645;SDS011;60687;53.876;10.674;2023-07-13T21:58:54;5.63;;;1.50;;
72645;SDS011;60687;53.876;10.674;2023-07-13T22:08:56;5.97;;;1.53;;
72645;SDS011;60687;53.876;10.674;2023-07-13T22:19:05;6.60;;;1.73;;
72645;SDS011;60687;53.876;10.674;2023-07-13T22:29:13;7.75;;;2.50;;
72645;SDS011;60687;53.876;10.674;2023-07-13T22:39:20;5.38;;;1.85;;
72645;SDS011;60687;53.876;10.674;2023-07-13T22:49:27;5.13;;;1.73;;
72645;SDS011;60687;53.876;10.674;2023-07-13T22:59:35;4.83;;;1.67;;
72645;SDS011;60687;53.876;10.674;2023-07-13T23:09:38;5.95;;;1.80;;
72645;SDS011;60687;53.876;10.674;2023-07-13T23:19:44;4.93;;;1.57;;
72645;SDS011;60687;53.876;10.674;2023-07-13T23:29:46;5.43;;;1.73;;
72645;SDS011;60687;53.876;10.674;2023-07-13T23:39:50;6.18;;;1.80;;
72645;SDS011;60687;53.876;10.674;2023-07-13T23:49:52;4.13;;;1.40;;
72645;SDS011;60687;53.876;10.674;2023-07-13T23:59:57;6.03;;;1.77;;
